Time;durP1;ratioP1;P1;durP2;ratioP2;P2;SDS_P1;SDS_P2;PMS_P1;PMS_P2;Temp;Humidity;BMP_temperature;BMP_pressure;BME280_temperature;BME280_humidity;BME280_pressure;Samples;Min_cycle;Max_cycle;Signal;HPM_P1;HPM_P2
2023/06/26 00:02:25;;;;;;;6.20;2.08;;;;;;;;;;5053573;28;20052;-60
2023/06/26 00:04:55;;;;;;;8.27;2.45;;;;;;;;;;5052227;28;20056;-60
2023/06/26 00:07:21;;;;;;;5.28;2.00;;;;;;;;;;5053563;28;20053;-60
2023/06/26 00:09:48;;;;;;;14.35;3.22;;;;;;;;;;5053474;28;20053;-61
2023/06/26 00:12:14;;;;;;;5.47;2.17;;;;;;;;;;5053265;28;20049;-60
2023/06/26 00:14:41;;;;;;;7.55;1.70;;;;;;;;;;5053349;28;20045;-60
2023/06/26 00:17:07;;;;;;;6.68;1.98;;;;;;;;;;5053467;28;20408;-61
2023/06/26 00:19:34;;;;;;;7.65;2.22;;;;;;;;;;5053016;28;20049;-61
2023/06/26 00:22:01;;;;;;;8.80;2.60;;;;;;;;;;5053085;28;20052;-60
2023/06/26 00:24:27;;;;;;;7.82;2.20;;;;;;;;;;5053266;28;20100;-60
2023/06/26 00:26:54;;;;;;;7.57;2.50;;;;;;;;;;5053213;28;20048;-60
2023/06/26 00:29:20;;;;;;;8.02;2.70;;;;;;;;;;5053112;28;20095;-60
2023/06/26 00:31:46;;;;;;;9.63;2.85;;;;;;;;;;5052948;28;20416;-61
2023/06/26 00:34:14;;;;;;;5.53;2.13;;;;;;;;;;5052855;28;20402;-61
2023/06/26 00:36:43;;;;;;;6.25;2.38;;;;;;;;;;5052907;28;20147;-61
2023/06/26 00:39:10;;;;;;;10.00;2.33;;;;;;;;;;5052870;28;20041;-61
2023/06/26 00:41:37;;;;;;;7.43;2.30;;;;;;;;;;5053007;28;20053;-60
2023/06/26 00:44:04;;;;;;;6.85;2.30;;;;;;;;;;5052404;28;20289;-61
2023/06/26 00:46:30;;;;;;;8.27;2.17;;;;;;;;;;5052689;28;20044;-60
2023/06/26 00:48:59;;;;;;;7.35;2.13;;;;;;;;;;5052536;28;20045;-61
2023/06/26 00:51:29;;;;;;;9.25;2.47;;;;;;;;;;5046569;28;20057;-60
2023/06/26 00:53:56;;;;;;;6.57;2.00;;;;;;;;;;5034627;28;20057;-60
2023/06/26 00:56:22;;;;;;;11.00;2.20;;;;;;;;;;5051607;28;20048;-60
2023/06/26 00:58:49;;;;;;;7.40;1.67;;;;;;;;;;5051495;28;20049;-61
2023/06/26 01:01:16;;;;;;;6.10;1.98;;;;;;;;;;5052165;28;20053;-61
2023/06/26 01:03:44;;;;;;;6.60;1.83;;;;;;;;;;5052331;28;20053;-61
2023/06/26 01:06:11;;;;;;;6.95;1.80;;;;;;;;;;5052146;28;20053;-60
2023/06/26 01:08:38;;;;;;;;;;;;;;;;;;5052831;28;20723;-60
2023/06/26 01:11:04;;;;;;;10.23;1.88;;;;;;;;;;5052016;28;19924;-60
2023/06/26 01:13:31;;;;;;;6.80;1.50;;;;;;;;;;5050862;28;20098;-60
2023/06/26 01:15:58;;;;;;;5.93;1.80;;;;;;;;;;5052208;28;20048;-60
2023/06/26 01:18:25;;;;;;;6.20;1.77;;;;;;;;;;5051914;28;20118;-60
2023/06/26 01:20:52;;;;;;;8.55;2.25;;;;;;;;;;5052303;28;20049;-60
2023/06/26 01:23:23;;;;;;;6.47;1.65;;;;;;;;;;5051840;28;20052;-61
2023/06/26 01:26:07;;;;;;;9.55;2.33;;;;;;;;;;5052204;28;20075;-60
2023/06/26 01:28:38;;;;;;;9.45;2.20;;;;;;;;;;5051761;28;20481;-61
2023/06/26 01:31:05;;;;;;;7.55;1.95;;;;;;;;;;5051737;28;20057;-60
2023/06/26 01:33:32;;;;;;;5.97;1.98;;;;;;;;;;5051565;28;20500;-60
2023/06/26 01:35:59;;;;;;;11.18;2.22;;;;;;;;;;5051998;28;20040;-60
2023/06/26 01:38:28;;;;;;;9.97;1.90;;;;;;;;;;5052032;28;20063;-60
2023/06/26 01:40:54;;;;;;;9.57;1.95;;;;;;;;;;5051870;28;20453;-60
2023/06/26 01:43:40;;;;;;;9.15;2.30;;;;;;;;;;5051443;28;20060;-61
2023/06/26 01:46:14;;;;;;;10.52;2.58;;;;;;;;;;5051761;28;20053;-60
2023/06/26 01:48:46;;;;;;;9.50;2.22;;;;;;;;;;5051811;28;20114;-60
2023/06/26 01:51:14;;;;;;;6.10;1.63;;;;;;;;;;5051647;28;20053;-60
2023/06/26 01:53:40;;;;;;;;;;;;;;;;;;5051984;28;20053;-60
2023/06/26 01:56:08;;;;;;;12.27;3.00;;;;;;;;;;5051762;28;19932;-60
2023/06/26 01:58:35;;;;;;;7.38;2.03;;;;;;;;;;5051731;28;20049;-60
2023/06/26 02:01:02;;;;;;;8.48;1.88;;;;;;;;;;5051534;28;20060;-60
2023/06/26 02:03:30;;;;;;;8.23;1.85;;;;;;;;;;5051389;28;20045;-61
2023/06/26 02:05:56;;;;;;;10.38;2.40;;;;;;;;;;5051462;28;20471;-60
2023/06/26 02:08:23;;;;;;;9.27;2.10;;;;;;;;;;5051304;28;20459;-60
2023/06/26 02:10:49;;;;;;;8.15;2.05;;;;;;;;;;5051622;28;20053;-60
2023/06/26 02:13:16;;;;;;;8.45;2.33;;;;;;;;;;5051172;28;20053;-60
2023/06/26 02:15:42;;;;;;;7.95;2.45;;;;;;;;;;5051516;28;20052;-60
2023/06/26 02:18:10;;;;;;;9.73;2.28;;;;;;;;;;5051606;28;20040;-60
2023/06/26 02:20:36;;;;;;;;;;;;;;;;;;5051801;28;20091;-60
2023/06/26 02:23:03;;;;;;;8.73;2.13;;;;;;;;;;5051176;28;20011;-60
2023/06/26 02:25:29;;;;;;;9.50;2.22;;;;;;;;;;5051376;28;20278;-60
2023/06/26 02:27:56;;;;;;;11.10;2.20;;;;;;;;;;5051527;28;20102;-60
2023/06/26 02:30:22;;;;;;;10.82;2.38;;;;;;;;;;5051281;28;20049;-60
2023/06/26 02:32:48;;;;;;;13.93;2.67;;;;;;;;;;5051485;28;20099;-60
2023/06/26 02:35:15;;;;;;;6.03;2.20;;;;;;;;;;5051059;28;20041;-60
2023/06/26 02:37:41;;;;;;;9.50;2.38;;;;;;;;;;5051025;28;20049;-60
2023/06/26 02:40:09;;;;;;;10.75;2.38;;;;;;;;;;5051107;28;20053;-60
2023/06/26 02:42:36;;;;;;;9.88;2.38;;;;;;;;;;5051339;28;20060;-60
2023/06/26 02:45:02;;;;;;;10.63;2.60;;;;;;;;;;5053850;28;20057;-60
2023/06/26 02:47:29;;;;;;;9.32;2.60;;;;;;;;;;5055142;28;20479;-60
2023/06/26 02:49:55;;;;;;;14.40;2.55;;;;;;;;;;5055180;28;20048;-60
2023/06/26 02:52:22;;;;;;;8.88;2.60;;;;;;;;;;5054898;28;20053;-60
2023/06/26 02:54:48;;;;;;;10.73;2.50;;;;;;;;;;5054934;28;20127;-60
2023/06/26 02:57:16;;;;;;;7.47;2.08;;;;;;;;;;5054847;28;20040;-61
2023/06/26 02:59:43;;;;;;;8.07;2.00;;;;;;;;;;5054531;28;20465;-60
2023/06/26 03:02:09;;;;;;;11.27;2.40;;;;;;;;;;5054697;28;20099;-60
2023/06/26 03:04:36;;;;;;;7.43;2.03;;;;;;;;;;5054734;28;20052;-60
2023/06/26 03:07:03;;;;;;;9.50;2.27;;;;;;;;;;5054737;28;20053;-60
2023/06/26 03:09:29;;;;;;;11.10;2.42;;;;;;;;;;5054644;28;20487;-60
2023/06/26 03:11:56;;;;;;;10.68;2.60;;;;;;;;;;5054403;28;20056;-60
2023/06/26 03:14:23;;;;;;;9.45;2.42;;;;;;;;;;5054532;28;20052;-60
2023/06/26 03:16:52;;;;;;;13.50;2.60;;;;;;;;;;5054337;28;20128;-60
2023/06/26 03:19:19;;;;;;;9.57;2.60;;;;;;;;;;5054190;28;20099;-60
2023/06/26 03:21:45;;;;;;;13.48;2.47;;;;;;;;;;5054427;28;20049;-60
2023/06/26 03:24:12;;;;;;;14.40;2.80;;;;;;;;;;5054448;28;20068;-60
2023/06/26 03:26:38;;;;;;;9.15;2.72;;;;;;;;;;5054319;28;20074;-60
2023/06/26 03:29:05;;;;;;;8.07;2.10;;;;;;;;;;5054347;28;20493;-60
2023/06/26 03:31:31;;;;;;;10.07;2.17;;;;;;;;;;5054272;28;20049;-60
2023/06/26 03:33:58;;;;;;;9.75;2.40;;;;;;;;;;5053963;28;20144;-60
2023/06/26 03:36:24;;;;;;;10.30;2.45;;;;;;;;;;5054120;28;20098;-60
2023/06/26 03:38:53;;;;;;;10.98;2.65;;;;;;;;;;5053831;28;20079;-60
2023/06/26 03:41:19;;;;;;;11.45;2.38;;;;;;;;;;5053888;28;20041;-60
2023/06/26 03:43:45;;;;;;;10.73;2.65;;;;;;;;;;5053837;28;20103;-60
2023/06/26 03:46:12;;;;;;;8.73;2.35;;;;;;;;;;5053915;28;20436;-60
2023/06/26 03:48:38;;;;;;;14.43;2.38;;;;;;;;;;5053661;28;20056;-60
2023/06/26 03:51:06;;;;;;;14.23;2.65;;;;;;;;;;5053838;28;20049;-60
2023/06/26 03:53:33;;;;;;;9.10;2.28;;;;;;;;;;5047271;28;20048;-61
2023/06/26 03:56:00;;;;;;;10.03;2.90;;;;;;;;;;5053510;28;20048;-60
2023/06/26 03:58:26;;;;;;;12.93;2.90;;;;;;;;;;5053726;28;20044;-60
2023/06/26 04:00:53;;;;;;;11.20;2.60;;;;;;;;;;5053335;28;20049;-60
2023/06/26 04:03:19;;;;;;;9.13;2.40;;;;;;;;;;5053766;28;20044;-60
2023/06/26 04:05:46;;;;;;;11.85;2.35;;;;;;;;;;5053598;28;20293;-60
2023/06/26 04:08:13;;;;;;;12.15;2.65;;;;;;;;;;5053196;28;20059;-60
2023/06/26 04:10:39;;;;;;;10.07;2.58;;;;;;;;;;5053547;28;20060;-60
2023/06/26 04:13:06;;;;;;;11.57;2.83;;;;;;;;;;5053278;28;20087;-60
2023/06/26 04:15:32;;;;;;;10.40;2.70;;;;;;;;;;5053368;28;20393;-60
2023/06/26 04:17:59;;;;;;;6.88;2.75;;;;;;;;;;5053091;28;20071;-60
2023/06/26 04:20:25;;;;;;;12.83;2.50;;;;;;;;;;5053358;28;20051;-60
2023/06/26 04:22:52;;;;;;;8.40;2.42;;;;;;;;;;5053064;28;20504;-60
2023/06/26 04:25:18;;;;;;;6.90;2.20;;;;;;;;;;5052847;28;20518;-60
2023/06/26 04:27:45;;;;;;;10.57;2.25;;;;;;;;;;5053198;28;20137;-60
2023/06/26 04:30:12;;;;;;;9.02;2.53;;;;;;;;;;5052797;28;20420;-60
2023/06/26 04:32:38;;;;;;;11.02;2.35;;;;;;;;;;5053150;28;20057;-60
2023/06/26 04:35:05;;;;;;;8.18;2.22;;;;;;;;;;5052639;28;20045;-61
2023/06/26 04:37:31;;;;;;;10.82;2.50;;;;;;;;;;5053053;28;20056;-61
2023/06/26 04:39:58;;;;;;;9.52;2.42;;;;;;;;;;5053033;28;20106;-60
2023/06/26 04:42:24;;;;;;;11.35;2.63;;;;;;;;;;5052889;28;20064;-60
2023/06/26 04:44:51;;;;;;;12.25;2.40;;;;;;;;;;5052591;28;20065;-60
2023/06/26 04:47:17;;;;;;;8.38;2.88;;;;;;;;;;5052758;28;20096;-60
2023/06/26 04:49:45;;;;;;;8.15;2.35;;;;;;;;;;5052808;28;20057;-61
2023/06/26 04:52:15;;;;;;;9.82;2.50;;;;;;;;;;5052654;28;20083;-60
2023/06/26 04:54:42;;;;;;;11.18;2.45;;;;;;;;;;5052414;28;20117;-60
2023/06/26 04:57:09;;;;;;;10.98;2.17;;;;;;;;;;5052278;28;20045;-60
2023/06/26 04:59:36;;;;;;;15.32;3.10;;;;;;;;;;5052324;28;20509;-60
2023/06/26 05:02:02;;;;;;;9.52;2.65;;;;;;;;;;5052459;28;20048;-60
2023/06/26 05:04:29;;;;;;;13.50;2.85;;;;;;;;;;5052373;28;20040;-60
2023/06/26 05:06:55;;;;;;;12.02;2.28;;;;;;;;;;5051693;28;20049;-60
2023/06/26 05:09:22;;;;;;;10.60;2.58;;;;;;;;;;5052214;28;20434;-60
2023/06/26 05:11:48;;;;;;;10.05;2.40;;;;;;;;;;5052312;28;20508;-60
2023/06/26 05:14:15;;;;;;;9.35;2.33;;;;;;;;;;5051916;28;20048;-61
2023/06/26 05:16:41;;;;;;;9.98;2.08;;;;;;;;;;5052253;28;20398;-61
2023/06/26 05:19:08;;;;;;;9.93;2.35;;;;;;;;;;5052284;28;20646;-61
2023/06/26 05:21:34;;;;;;;12.15;2.78;;;;;;;;;;5051818;28;20084;-61
2023/06/26 05:24:02;;;;;;;9.23;2.00;;;;;;;;;;5052016;28;20056;-61
2023/06/26 05:26:28;;;;;;;;;;;;;;;;;;5052241;28;20053;-61
2023/06/26 05:28:55;;;;;;;9.67;2.20;;;;;;;;;;5051984;28;19931;-61
2023/06/26 05:31:22;;;;;;;12.00;2.60;;;;;;;;;;5047440;28;20045;-60
2023/06/26 05:33:48;;;;;;;10.37;2.50;;;;;;;;;;5052457;28;20415;-60
2023/06/26 05:36:16;;;;;;;10.63;2.25;;;;;;;;;;5051886;28;20048;-60
2023/06/26 05:38:42;;;;;;;9.85;2.33;;;;;;;;;;5051875;28;20542;-60
2023/06/26 05:41:09;;;;;;;14.60;2.40;;;;;;;;;;5051934;28;20048;-60
2023/06/26 05:43:35;;;;;;;8.30;2.27;;;;;;;;;;5051810;28;20060;-60
2023/06/26 05:46:02;;;;;;;7.93;2.45;;;;;;;;;;5051729;28;20171;-60
2023/06/26 05:48:28;;;;;;;8.40;2.25;;;;;;;;;;5050411;28;20052;-60
2023/06/26 05:50:55;;;;;;;10.07;2.40;;;;;;;;;;5049417;28;20086;-60
2023/06/26 05:53:22;;;;;;;14.47;2.87;;;;;;;;;;5032234;28;20405;-60
2023/06/26 05:55:48;;;;;;;12.85;2.83;;;;;;;;;;5031519;28;20481;-60
2023/06/26 05:58:15;;;;;;;7.60;2.43;;;;;;;;;;5031269;28;20049;-60
2023/06/26 06:00:42;;;;;;;9.18;2.70;;;;;;;;;;5032884;28;20278;-59
2023/06/26 06:03:10;;;;;;;7.78;2.05;;;;;;;;;;5033709;28;20041;-60
2023/06/26 06:05:37;;;;;;;7.95;2.30;;;;;;;;;;5031768;28;20064;-60
2023/06/26 06:08:03;;;;;;;5.85;1.85;;;;;;;;;;5048857;28;20385;-60
2023/06/26 06:10:30;;;;;;;8.88;1.88;;;;;;;;;;5051720;28;20052;-60
2023/06/26 06:12:56;;;;;;;7.60;2.20;;;;;;;;;;5051341;28;20055;-59
2023/06/26 06:15:23;;;;;;;8.32;2.42;;;;;;;;;;5051615;28;20052;-60
2023/06/26 06:17:50;;;;;;;9.32;2.55;;;;;;;;;;5052446;28;20055;-60
2023/06/26 06:20:19;;;;;;;11.63;2.60;;;;;;;;;;5055334;28;20485;-60
2023/06/26 06:22:45;;;;;;;8.85;2.78;;;;;;;;;;5055282;28;20052;-60
2023/06/26 06:25:12;;;;;;;8.27;2.42;;;;;;;;;;5055395;28;20459;-60
2023/06/26 06:27:38;;;;;;;8.60;2.28;;;;;;;;;;5055404;28;20057;-60
2023/06/26 06:30:05;;;;;;;7.43;2.07;;;;;;;;;;5044886;28;20064;-60
2023/06/26 06:32:34;;;;;;;13.32;2.70;;;;;;;;;;5051340;28;20915;-61
2023/06/26 06:35:08;;;;;;;10.20;2.60;;;;;;;;;;5054579;28;20504;-60
2023/06/26 06:37:38;;;;;;;9.27;2.60;;;;;;;;;;5055029;28;20056;-60
2023/06/26 06:40:09;;;;;;;8.40;2.22;;;;;;;;;;5054271;28;20041;-60
2023/06/26 06:42:35;;;;;;;10.63;2.95;;;;;;;;;;5055089;28;20072;-60
2023/06/26 06:45:02;;;;;;;8.00;2.30;;;;;;;;;;5054825;28;20056;-60
2023/06/26 06:47:29;;;;;;;9.27;2.45;;;;;;;;;;5054970;28;20080;-60
2023/06/26 06:49:56;;;;;;;8.23;2.40;;;;;;;;;;5054705;28;20049;-60
2023/06/26 06:52:22;;;;;;;12.20;3.10;;;;;;;;;;5054767;28;20048;-61
2023/06/26 06:54:52;;;;;;;10.45;2.35;;;;;;;;;;5054852;28;20049;-60
2023/06/26 06:57:20;;;;;;;9.80;2.45;;;;;;;;;;5054989;28;20075;-61
2023/06/26 06:59:47;;;;;;;;;;;;;;;;;;5055169;28;20496;-60
2023/06/26 07:02:14;;;;;;;7.93;2.22;;;;;;;;;;5054537;28;20339;-60
2023/06/26 07:04:40;;;;;;;11.30;2.78;;;;;;;;;;5054992;28;20092;-60
2023/06/26 07:07:08;;;;;;;13.82;3.25;;;;;;;;;;5054415;28;20053;-60
2023/06/26 07:09:35;;;;;;;7.50;3.42;;;;;;;;;;5054344;28;20497;-59
2023/06/26 07:12:02;;;;;;;7.88;3.22;;;;;;;;;;5054717;28;20059;-60
2023/06/26 07:14:29;;;;;;;7.35;2.38;;;;;;;;;;5054281;28;20079;-60
2023/06/26 07:16:55;;;;;;;10.55;2.83;;;;;;;;;;5053778;28;20102;-60
2023/06/26 07:19:22;;;;;;;7.77;3.00;;;;;;;;;;5053300;28;20049;-60
2023/06/26 07:21:48;;;;;;;11.10;2.85;;;;;;;;;;5054479;28;20447;-60
2023/06/26 07:24:14;;;;;;;7.22;2.92;;;;;;;;;;5053607;28;20049;-60
2023/06/26 07:26:41;;;;;;;7.47;2.47;;;;;;;;;;5052215;28;20080;-60
2023/06/26 07:29:12;;;;;;;8.20;2.60;;;;;;;;;;5039970;28;20500;-60
2023/06/26 07:31:39;;;;;;;8.75;2.97;;;;;;;;;;5054033;28;20056;-60
2023/06/26 07:34:05;;;;;;;11.50;2.87;;;;;;;;;;5053987;28;20094;-60
2023/06/26 07:36:32;;;;;;;4.03;1.97;;;;;;;;;;5053932;28;20048;-60
2023/06/26 07:38:58;;;;;;;9.67;2.10;;;;;;;;;;5039303;28;20045;-60
2023/06/26 07:41:24;;;;;;;7.27;1.83;;;;;;;;;;5053875;28;20053;-60
2023/06/26 07:43:51;;;;;;;6.13;2.10;;;;;;;;;;5053167;28;20634;-60
2023/06/26 07:46:17;;;;;;;8.82;1.80;;;;;;;;;;5039944;28;20049;-60
2023/06/26 07:48:44;;;;;;;7.97;2.13;;;;;;;;;;5053977;28;20128;-60
2023/06/26 07:51:10;;;;;;;8.35;1.98;;;;;;;;;;5053982;28;20289;-60
2023/06/26 07:53:37;;;;;;;9.70;2.05;;;;;;;;;;5053983;28;20456;-60
2023/06/26 07:56:03;;;;;;;6.37;2.13;;;;;;;;;;5053530;28;20421;-60
2023/06/26 07:58:30;;;;;;;8.17;2.00;;;;;;;;;;5053809;28;20041;-60
2023/06/26 08:00:56;;;;;;;7.32;2.28;;;;;;;;;;5052461;28;20606;-60
2023/06/26 08:03:23;;;;;;;7.28;2.03;;;;;;;;;;5053659;28;20503;-60
2023/06/26 08:06:01;;;;;;;5.75;1.80;;;;;;;;;;5046511;28;20409;-60
2023/06/26 08:08:27;;;;;;;9.63;2.38;;;;;;;;;;5033608;28;20053;-60
2023/06/26 08:10:53;;;;;;;11.10;2.08;;;;;;;;;;5033348;28;20069;-60
2023/06/26 08:13:20;;;;;;;11.68;2.85;;;;;;;;;;5033208;28;20528;-60
2023/06/26 08:15:46;;;;;;;10.32;2.30;;;;;;;;;;5050516;28;20448;-60
2023/06/26 08:18:13;;;;;;;9.13;2.17;;;;;;;;;;5053235;28;20102;-60
2023/06/26 08:20:39;;;;;;;8.45;2.33;;;;;;;;;;5053357;28;20124;-60
2023/06/26 08:23:06;;;;;;;7.80;2.33;;;;;;;;;;5053112;28;20504;-60
2023/06/26 08:25:33;;;;;;;7.97;2.17;;;;;;;;;;5053040;28;20048;-60
2023/06/26 08:27:59;;;;;;;9.52;2.17;;;;;;;;;;5053257;28;20053;-60
2023/06/26 08:30:27;;;;;;;7.88;2.13;;;;;;;;;;5052931;28;20052;-60
2023/06/26 08:32:55;;;;;;;10.38;2.88;;;;;;;;;;5053120;28;20102;-60
2023/06/26 08:35:22;;;;;;;7.40;2.03;;;;;;;;;;5053118;28;20048;-61
2023/06/26 08:37:48;;;;;;;7.75;1.98;;;;;;;;;;5052444;28;20045;-60
2023/06/26 08:40:16;;;;;;;5.67;1.93;;;;;;;;;;5052694;28;20051;-60
2023/06/26 08:42:43;;;;;;;7.80;2.00;;;;;;;;;;5052940;28;20523;-61
2023/06/26 08:45:09;;;;;;;6.33;1.50;;;;;;;;;;5052574;28;20069;-61
2023/06/26 08:47:37;;;;;;;7.38;1.55;;;;;;;;;;5052629;28;20060;-60
2023/06/26 08:50:11;;;;;;;7.30;1.77;;;;;;;;;;5052796;28;20389;-60
2023/06/26 08:52:49;;;;;;;8.63;1.60;;;;;;;;;;5052830;28;20052;-60
2023/06/26 08:55:16;;;;;;;5.63;1.50;;;;;;;;;;5052704;28;20051;-60
2023/06/26 08:57:42;;;;;;;6.22;1.67;;;;;;;;;;5052134;28;20049;-60
2023/06/26 09:00:14;;;;;;;7.75;1.58;;;;;;;;;;5035489;28;20049;-60
2023/06/26 09:02:41;;;;;;;5.82;1.63;;;;;;;;;;5037903;28;20041;-60
2023/06/26 09:05:11;;;;;;;8.38;1.60;;;;;;;;;;5046742;28;20041;-60
2023/06/26 09:07:37;;;;;;;6.50;1.52;;;;;;;;;;5044463;28;20044;-60
2023/06/26 09:10:04;;;;;;;5.38;1.40;;;;;;;;;;5051065;28;20061;-61
2023/06/26 09:12:31;;;;;;;4.72;1.15;;;;;;;;;;5051777;28;20048;-60
2023/06/26 09:14:57;;;;;;;6.40;1.60;;;;;;;;;;5049016;28;20459;-60
2023/06/26 09:17:24;;;;;;;5.75;1.35;;;;;;;;;;5033818;28;20050;-60
2023/06/26 09:19:51;;;;;;;6.00;1.40;;;;;;;;;;5035399;28;20086;-60
2023/06/26 09:22:17;;;;;;;4.70;1.20;;;;;;;;;;5050417;28;20045;-60
2023/06/26 09:24:44;;;;;;;5.30;1.20;;;;;;;;;;5038484;28;20041;-60
2023/06/26 09:27:11;;;;;;;7.05;1.45;;;;;;;;;;5049462;28;20085;-60
2023/06/26 09:29:37;;;;;;;4.78;0.95;;;;;;;;;;5051641;28;20052;-60
2023/06/26 09:32:04;;;;;;;5.32;1.27;;;;;;;;;;5051274;28;20099;-60
2023/06/26 09:34:31;;;;;;;5.68;1.23;;;;;;;;;;5051528;28;20393;-60
2023/06/26 09:36:58;;;;;;;5.88;1.27;;;;;;;;;;5051152;28;20078;-60
2023/06/26 09:39:25;;;;;;;6.22;1.38;;;;;;;;;;5051250;28;20048;-60
2023/06/26 09:41:52;;;;;;;5.22;0.95;;;;;;;;;;5051327;28;20053;-60
2023/06/26 09:44:18;;;;;;;2.58;0.77;;;;;;;;;;5051415;28;20106;-60
2023/06/26 09:46:45;;;;;;;4.00;1.00;;;;;;;;;;5051096;28;20052;-60
2023/06/26 09:49:12;;;;;;;4.32;0.98;;;;;;;;;;5051132;28;20511;-60
2023/06/26 09:51:39;;;;;;;3.80;0.85;;;;;;;;;;5050945;28;20522;-61
2023/06/26 09:54:06;;;;;;;5.28;1.30;;;;;;;;;;5044574;28;20455;-60
2023/06/26 09:56:32;;;;;;;6.03;1.02;;;;;;;;;;5030906;28;20053;-59
2023/06/26 09:59:03;;;;;;;6.30;0.90;;;;;;;;;;5031437;28;20420;-60
2023/06/26 10:01:30;;;;;;;4.40;0.85;;;;;;;;;;5038525;28;20056;-60
2023/06/26 10:03:57;;;;;;;3.55;1.05;;;;;;;;;;5051165;28;20053;-60
2023/06/26 10:06:26;;;;;;;7.22;1.30;;;;;;;;;;5050812;28;20048;-61
2023/06/26 10:08:53;;;;;;;4.80;0.95;;;;;;;;;;5051075;28;20056;-62
2023/06/26 10:11:21;;;;;;;3.28;0.70;;;;;;;;;;5051389;28;20060;-61
2023/06/26 10:13:49;;;;;;;4.65;0.85;;;;;;;;;;5050630;28;20489;-60
2023/06/26 10:16:23;;;;;;;3.50;1.00;;;;;;;;;;5051021;28;20447;-60
2023/06/26 10:18:52;;;;;;;4.15;0.65;;;;;;;;;;5047886;28;20088;-60
2023/06/26 10:21:21;;;;;;;4.32;1.00;;;;;;;;;;5050850;28;20499;-59
2023/06/26 10:23:48;;;;;;;5.97;0.98;;;;;;;;;;5050984;28;20076;-59
2023/06/26 10:26:15;;;;;;;5.63;1.10;;;;;;;;;;5048255;28;20059;-59
2023/06/26 10:28:42;;;;;;;2.28;0.80;;;;;;;;;;5051183;28;20182;-60
2023/06/26 10:31:09;;;;;;;;;;;;;;;;;;5051172;28;20626;-59
2023/06/26 10:33:36;;;;;;;2.97;0.70;;;;;;;;;;5050601;28;19925;-60
2023/06/26 10:36:02;;;;;;;;;;;;;;;;;;5050940;28;20512;-60
2023/06/26 10:38:47;;;;;;;4.28;1.10;;;;;;;;;;5050148;28;19970;-60
2023/06/26 10:41:15;;;;;;;2.25;0.68;;;;;;;;;;5050649;28;20060;-59
2023/06/26 10:43:44;;;;;;;3.08;0.88;;;;;;;;;;5050614;28;20104;-60
2023/06/26 10:46:10;;;;;;;3.28;0.90;;;;;;;;;;5050793;28;20071;-60
2023/06/26 10:48:55;;;;;;;3.80;1.00;;;;;;;;;;5050538;28;20502;-61
2023/06/26 10:51:22;;;;;;;2.72;0.73;;;;;;;;;;5050456;28;20609;-60
2023/06/26 10:53:55;;;;;;;4.97;0.70;;;;;;;;;;5047251;28;20111;-60
2023/06/26 10:56:40;;;;;;;2.92;0.95;;;;;;;;;;5050679;28;20049;-59
2023/06/26 10:59:14;;;;;;;2.80;0.55;;;;;;;;;;5050617;28;20048;-59
2023/06/26 11:01:44;;;;;;;2.97;0.88;;;;;;;;;;5050392;28;20053;-59
2023/06/26 11:04:10;;;;;;;3.88;0.80;;;;;;;;;;5049135;28;20052;-60
2023/06/26 11:06:38;;;;;;;;;;;;;;;;;;5042722;28;20099;-60
2023/06/26 11:09:05;;;;;;;3.85;0.80;;;;;;;;;;5054184;28;19921;-59
2023/06/26 11:11:50;;;;;;;2.58;0.95;;;;;;;;;;5054215;28;20049;-60
2023/06/26 11:14:18;;;;;;;3.13;0.60;;;;;;;;;;5054152;28;20060;-59
2023/06/26 11:16:44;;;;;;;4.03;0.80;;;;;;;;;;5053946;28;20304;-60
2023/06/26 11:19:11;;;;;;;2.63;0.80;;;;;;;;;;5053851;28;20049;-59
2023/06/26 11:21:37;;;;;;;2.92;0.70;;;;;;;;;;5047444;28;20049;-60
2023/06/26 11:24:07;;;;;;;2.92;0.77;;;;;;;;;;5040629;28;20409;-59
2023/06/26 11:26:40;;;;;;;3.10;0.70;;;;;;;;;;5043810;28;20056;-60
2023/06/26 11:29:07;;;;;;;2.13;0.60;;;;;;;;;;5054161;28;20053;-60
2023/06/26 11:31:35;;;;;;;1.90;0.50;;;;;;;;;;5053788;28;20060;-60
2023/06/26 11:34:03;;;;;;;2.80;0.75;;;;;;;;;;5035848;28;20133;-60
2023/06/26 11:36:30;;;;;;;2.20;0.70;;;;;;;;;;5033445;28;20099;-60
2023/06/26 11:38:57;;;;;;;3.17;0.40;;;;;;;;;;5033530;28;20131;-59
2023/06/26 11:41:25;;;;;;;3.22;0.80;;;;;;;;;;5044621;28;20103;-59
2023/06/26 11:43:52;;;;;;;2.58;0.63;;;;;;;;;;5046636;28;20049;-60
2023/06/26 11:46:20;;;;;;;1.38;0.47;;;;;;;;;;5039759;28;20057;-60
2023/06/26 11:48:46;;;;;;;2.05;0.70;;;;;;;;;;5051875;28;20489;-59
2023/06/26 11:51:14;;;;;;;2.40;0.60;;;;;;;;;;5051996;28;20501;-60
2023/06/26 11:53:41;;;;;;;2.60;0.77;;;;;;;;;;5051077;28;20046;-60
2023/06/26 11:56:09;;;;;;;2.35;0.82;;;;;;;;;;5053061;28;20052;-60
2023/06/26 11:58:36;;;;;;;1.98;0.60;;;;;;;;;;5053404;28;20492;-60
2023/06/26 12:01:02;;;;;;;4.43;0.80;;;;;;;;;;5053088;28;20045;-61
2023/06/26 12:03:29;;;;;;;2.75;0.60;;;;;;;;;;5053324;28;20041;-60
2023/06/26 12:05:56;;;;;;;2.22;0.70;;;;;;;;;;5053644;28;20045;-60
2023/06/26 12:08:22;;;;;;;2.53;0.60;;;;;;;;;;5053333;28;20436;-60
2023/06/26 12:10:49;;;;;;;2.30;0.88;;;;;;;;;;5053299;28;20044;-60
2023/06/26 12:13:16;;;;;;;1.70;0.55;;;;;;;;;;5053449;28;20049;-60
2023/06/26 12:15:42;;;;;;;3.50;0.70;;;;;;;;;;5053061;28;20103;-60
2023/06/26 12:18:09;;;;;;;7.28;1.85;;;;;;;;;;5053185;28;20045;-60
2023/06/26 12:20:39;;;;;;;3.80;0.95;;;;;;;;;;5053224;28;20045;-60
2023/06/26 12:23:11;;;;;;;1.35;0.43;;;;;;;;;;5052997;28;20071;-60
2023/06/26 12:25:38;;;;;;;3.83;0.93;;;;;;;;;;5053057;28;20053;-60
2023/06/26 12:28:14;;;;;;;2.65;0.63;;;;;;;;;;5053259;28;20080;-60
2023/06/26 12:30:45;;;;;;;1.75;0.70;;;;;;;;;;5053185;28;20555;-60
2023/06/26 12:33:15;;;;;;;1.75;0.60;;;;;;;;;;5052967;28;20061;-60
2023/06/26 12:35:43;;;;;;;2.63;0.60;;;;;;;;;;5052785;28;20056;-60
2023/06/26 12:38:10;;;;;;;2.70;0.70;;;;;;;;;;5052648;28;20481;-60
2023/06/26 12:40:44;;;;;;;1.85;0.68;;;;;;;;;;5052788;28;20053;-60
2023/06/26 12:43:22;;;;;;;2.17;0.75;;;;;;;;;;5053018;28;20484;-60
2023/06/26 12:45:48;;;;;;;1.52;0.57;;;;;;;;;;5040814;28;20559;-59
2023/06/26 12:48:16;;;;;;;3.67;0.85;;;;;;;;;;5032596;28;20080;-60
2023/06/26 12:50:44;;;;;;;2.65;0.70;;;;;;;;;;5032883;28;20096;-60
2023/06/26 12:53:11;;;;;;;2.50;0.82;;;;;;;;;;5032208;28;20046;-60
2023/06/26 12:55:39;;;;;;;1.65;0.63;;;;;;;;;;5032777;28;20049;-60
2023/06/26 12:58:07;;;;;;;2.58;0.60;;;;;;;;;;5037805;28;20630;-60
2023/06/26 13:00:35;;;;;;;2.85;0.77;;;;;;;;;;5052258;28;20061;-60
2023/06/26 13:03:01;;;;;;;2.20;0.65;;;;;;;;;;5033632;28;20132;-60
2023/06/26 13:05:28;;;;;;;5.05;0.98;;;;;;;;;;5032344;28;20492;-60
2023/06/26 13:07:55;;;;;;;3.70;1.02;;;;;;;;;;5032170;28;20413;-60
2023/06/26 13:10:21;;;;;;;3.20;0.80;;;;;;;;;;5032294;28;20049;-60
2023/06/26 13:12:48;;;;;;;6.72;1.30;;;;;;;;;;5032157;28;20497;-59
2023/06/26 13:15:14;;;;;;;3.03;0.77;;;;;;;;;;5032073;28;20061;-59
2023/06/26 13:17:41;;;;;;;5.45;0.90;;;;;;;;;;5032291;28;20046;-60
2023/06/26 13:20:08;;;;;;;2.17;0.65;;;;;;;;;;5032358;28;20057;-59
2023/06/26 13:22:34;;;;;;;2.28;0.60;;;;;;;;;;5032095;28;20049;-59
2023/06/26 13:25:01;;;;;;;3.95;0.98;;;;;;;;;;5032966;28;20481;-59
2023/06/26 13:27:27;;;;;;;2.55;0.90;;;;;;;;;;5051341;28;20416;-60
2023/06/26 13:29:54;;;;;;;2.47;0.75;;;;;;;;;;5051840;28;20064;-60
2023/06/26 13:32:20;;;;;;;2.75;1.00;;;;;;;;;;5049000;28;20400;-59
2023/06/26 13:34:48;;;;;;;3.70;0.80;;;;;;;;;;5023497;28;20054;-60
2023/06/26 13:37:14;;;;;;;3.20;0.70;;;;;;;;;;5029027;28;20053;-59
2023/06/26 13:39:41;;;;;;;2.72;0.70;;;;;;;;;;5031395;28;20046;-60
2023/06/26 13:42:07;;;;;;;2.00;0.80;;;;;;;;;;5031574;28;20053;-59
2023/06/26 13:44:34;;;;;;;4.05;0.63;;;;;;;;;;5031293;28;20417;-60
2023/06/26 13:47:17;;;;;;;2.42;0.80;;;;;;;;;;5030429;28;20049;-59
2023/06/26 13:49:45;;;;;;;2.05;0.70;;;;;;;;;;5028779;28;20049;-60
2023/06/26 13:52:11;;;;;;;4.43;0.70;;;;;;;;;;5019916;28;20049;-60
2023/06/26 13:54:39;;;;;;;2.17;0.80;;;;;;;;;;5031430;28;20053;-60
2023/06/26 13:57:06;;;;;;;3.25;0.70;;;;;;;;;;5031478;28;20041;-59
2023/06/26 13:59:33;;;;;;;1.58;0.63;;;;;;;;;;5031582;28;20041;-59
2023/06/26 14:02:00;;;;;;;3.15;0.50;;;;;;;;;;5021353;28;20057;-59
2023/06/26 14:04:26;;;;;;;2.50;0.73;;;;;;;;;;5014226;28;20504;-60
2023/06/26 14:06:53;;;;;;;2.15;0.63;;;;;;;;;;5043376;28;20053;-60
2023/06/26 14:09:19;;;;;;;2.30;0.90;;;;;;;;;;5035056;28;20053;-60
2023/06/26 14:11:46;;;;;;;3.10;0.70;;;;;;;;;;5030325;28;20080;-60
2023/06/26 14:14:12;;;;;;;2.85;0.68;;;;;;;;;;5035878;28;20045;-60
2023/06/26 14:16:40;;;;;;;4.63;0.70;;;;;;;;;;5049444;28;20455;-60
2023/06/26 14:19:06;;;;;;;2.60;0.80;;;;;;;;;;5049808;28;20056;-59
2023/06/26 14:21:33;;;;;;;1.95;0.70;;;;;;;;;;5050973;28;20044;-59
2023/06/26 14:23:59;;;;;;;4.07;0.90;;;;;;;;;;5051416;28;20049;-59
2023/06/26 14:26:27;;;;;;;2.97;0.60;;;;;;;;;;5051242;28;20045;-60
2023/06/26 14:28:54;;;;;;;3.63;0.80;;;;;;;;;;5051409;28;20057;-61
2023/06/26 14:31:21;;;;;;;2.05;0.60;;;;;;;;;;5051241;28;20048;-60
2023/06/26 14:33:47;;;;;;;3.20;0.60;;;;;;;;;;5051232;28;20049;-61
2023/06/26 14:36:14;;;;;;;3.97;0.85;;;;;;;;;;5036584;28;20050;-62
2023/06/26 14:38:40;;;;;;;2.45;0.90;;;;;;;;;;5043891;28;20486;-62
2023/06/26 14:41:07;;;;;;;4.00;0.82;;;;;;;;;;5034431;28;20041;-61
2023/06/26 14:43:34;;;;;;;2.95;0.90;;;;;;;;;;5046335;28;20135;-62
2023/06/26 14:46:01;;;;;;;4.07;0.80;;;;;;;;;;5055101;28;20045;-61